Denby, South Dakota
Current Conditions -  °F | °C
As of 5:52 PM on Monday 22 Dec 2014 (Local Time) from KIEN Reporting Station
Light Snow Light Snow  
Wind Chill: 19°   Ceiling: 1400
Heat Index: 32°   Visibility: 1.2mi
Dew Point: 26°   Wind: 22mph
Humidity: 79%   Direction: 360°N
Pressure: 29.64"   Gusts: 36mph
Location:  43.0745°N, 102.222°W
Report Text: KIEN 230052Z AUTO 36019G31KT 1 1/4SM -SN OVC014 00/M03 A2964 RMK AO2 PK WND 35034/0032 SLP055 P0001 T00001033
Loading
Personal Weather Stations






























Interactive Weather Map New forecast layout! Learn more

10-Day Weather Forecast

Advertisements
Track Severe Weather on mobile